createdAt,value
2019-02-12T00:00:59.728Z,17.39
2019-02-12T00:02:00.351Z,17.24
2019-02-12T00:03:00.927Z,17.29
2019-02-12T00:04:01.499Z,17.33
2019-02-12T00:05:02.073Z,17.24
2019-02-12T00:06:02.650Z,17.24
2019-02-12T00:07:03.227Z,17.12
2019-02-12T00:08:03.804Z,17.11
2019-02-12T00:09:04.374Z,17.26
2019-02-12T00:10:04.948Z,17.20
2019-02-12T00:11:05.524Z,17.24
2019-02-12T00:12:06.101Z,17.22
2019-02-12T00:13:06.671Z,17.19
2019-02-12T00:14:07.294Z,17.15
2019-02-12T00:15:07.873Z,17.16
2019-02-12T00:16:08.485Z,17.12
2019-02-12T00:17:09.059Z,17.20
2019-02-12T00:18:09.634Z,17.15
2019-02-12T00:19:10.211Z,17.08
2019-02-12T00:20:10.783Z,17.05
2019-02-12T00:21:11.405Z,17.05
2019-02-12T00:22:11.981Z,17.09
2019-02-12T00:23:12.554Z,17.02
2019-02-12T00:24:13.129Z,17.09
2019-02-12T00:25:13.702Z,16.99
2019-02-12T00:26:14.273Z,16.96
2019-02-12T00:27:14.846Z,17.02
2019-02-12T00:28:15.423Z,17.01
2019-02-12T00:29:16.042Z,17.05
2019-02-12T00:30:17.118Z,16.97
2019-02-12T00:31:17.784Z,16.99
2019-02-12T00:32:18.455Z,16.94
2019-02-12T00:33:19.029Z,16.86
2019-02-12T00:34:19.600Z,16.89
2019-02-12T00:35:20.177Z,17.01
2019-02-12T00:36:20.749Z,16.99
2019-02-12T00:37:21.322Z,16.90
2019-02-12T00:38:21.894Z,16.97
2019-02-12T00:39:22.465Z,16.96
2019-02-12T00:40:23.040Z,16.94
2019-02-12T00:41:23.653Z,16.93
2019-02-12T00:42:24.225Z,16.94
2019-02-12T00:43:24.802Z,16.89
2019-02-12T00:44:25.396Z,16.93
2019-02-12T00:45:25.987Z,16.96
2019-02-12T00:46:26.609Z,16.93
2019-02-12T00:47:27.232Z,16.99
2019-02-12T00:48:27.805Z,16.97
2019-02-12T00:49:28.409Z,16.97
2019-02-12T00:50:28.995Z,16.99
2019-02-12T00:51:29.568Z,16.91
2019-02-12T00:52:30.144Z,16.94
2019-02-12T00:53:30.722Z,16.90
2019-02-12T00:54:31.299Z,16.87
2019-02-12T00:55:31.869Z,16.78
2019-02-12T00:56:32.447Z,16.83
2019-02-12T00:57:33.038Z,16.86
2019-02-12T00:58:33.589Z,16.84
2019-02-12T00:59:34.163Z,16.84
2019-02-12T01:00:34.738Z,16.78
2019-02-12T01:01:35.308Z,16.69
2019-02-12T01:02:35.881Z,16.83
2019-02-12T01:03:36.506Z,16.79
2019-02-12T01:04:37.076Z,16.68
2019-02-12T01:05:37.652Z,16.74
2019-02-12T01:06:38.225Z,16.71
2019-02-12T01:07:39.003Z,16.74
2019-02-12T01:08:39.572Z,16.69
2019-02-12T01:09:40.151Z,16.68
2019-02-12T01:10:40.718Z,16.72
2019-02-12T01:11:41.289Z,16.71
2019-02-12T01:12:41.861Z,16.69
2019-02-12T01:13:42.434Z,16.72
2019-02-12T01:14:43.006Z,16.72
2019-02-12T01:15:43.578Z,16.69
2019-02-12T01:16:44.150Z,16.69
2019-02-12T01:17:44.722Z,16.72
2019-02-12T01:18:45.344Z,16.64
2019-02-12T01:19:45.918Z,16.60
2019-02-12T01:20:46.488Z,16.64
2019-02-12T01:21:47.059Z,16.61
2019-02-12T01:22:47.632Z,16.72
2019-02-12T01:23:48.204Z,16.58
2019-02-12T01:24:48.781Z,16.58
2019-02-12T01:25:49.352Z,16.61
2019-02-12T01:26:49.924Z,16.58
2019-02-12T01:27:50.497Z,16.68
2019-02-12T01:28:51.070Z,16.64
2019-02-12T01:29:51.645Z,16.61
2019-02-12T01:30:52.217Z,16.54
2019-02-12T01:31:52.789Z,16.58
2019-02-12T01:32:53.361Z,16.58
2019-02-12T01:33:53.933Z,16.64
2019-02-12T01:34:54.505Z,16.68
2019-02-12T01:35:55.078Z,16.65
2019-02-12T01:36:55.652Z,16.58
2019-02-12T01:37:56.223Z,16.61
2019-02-12T01:38:56.797Z,16.64
2019-02-12T01:39:57.367Z,16.66
2019-02-12T01:40:57.941Z,16.58
2019-02-12T01:41:58.517Z,16.65
2019-02-12T01:42:59.087Z,16.60
2019-02-12T01:43:59.657Z,16.65
2019-02-12T01:45:00.285Z,16.64
2019-02-12T01:46:00.839Z,16.58
2019-02-12T01:47:01.411Z,16.66
2019-02-12T01:48:01.983Z,16.58
2019-02-12T01:49:02.556Z,16.65
2019-02-12T01:50:03.130Z,16.64
2019-02-12T01:51:03.746Z,16.64
2019-02-12T01:52:04.358Z,16.64
2019-02-12T01:53:04.938Z,16.61
2019-02-12T01:54:05.507Z,16.61
2019-02-12T01:55:06.081Z,16.68
2019-02-12T01:56:06.653Z,16.64
2019-02-12T01:57:07.224Z,16.58
2019-02-12T01:58:07.795Z,16.61
2019-02-12T01:59:08.372Z,16.61
2019-02-12T02:00:08.945Z,16.66
2019-02-12T02:01:09.668Z,16.72
2019-02-12T02:02:10.241Z,16.74
2019-02-12T02:03:10.816Z,16.71
2019-02-12T02:04:11.387Z,16.69
2019-02-12T02:05:11.963Z,16.69
2019-02-12T02:06:12.533Z,16.72
2019-02-12T02:07:13.111Z,16.61
2019-02-12T02:08:13.682Z,16.58
2019-02-12T02:09:14.253Z,16.60
2019-02-12T02:10:14.853Z,16.61
2019-02-12T02:11:15.397Z,16.66
2019-02-12T02:12:16.019Z,16.68
2019-02-12T02:13:16.593Z,16.61
2019-02-12T02:14:17.175Z,16.58
2019-02-12T02:15:17.742Z,16.65
2019-02-12T02:16:18.316Z,16.65
2019-02-12T02:17:18.931Z,16.69
2019-02-12T02:18:19.554Z,16.64
2019-02-12T02:19:20.125Z,16.64
2019-02-12T02:20:20.697Z,16.60
2019-02-12T02:21:21.268Z,16.66
2019-02-12T02:22:21.840Z,16.61
2019-02-12T02:23:22.414Z,16.64
2019-02-12T02:24:23.034Z,16.61
2019-02-12T02:25:23.615Z,16.64
2019-02-12T02:26:24.186Z,16.58
2019-02-12T02:27:24.758Z,16.61
2019-02-12T02:28:25.333Z,16.61
2019-02-12T02:29:25.907Z,16.61
2019-02-12T02:30:26.545Z,16.69
2019-02-12T02:31:27.124Z,16.68
2019-02-12T02:32:27.693Z,16.68
2019-02-12T02:33:28.270Z,16.81
2019-02-12T02:34:28.843Z,16.79
2019-02-12T02:35:29.418Z,16.71
2019-02-12T02:36:29.988Z,16.78
2019-02-12T02:37:30.573Z,16.79
2019-02-12T02:38:31.134Z,16.81
2019-02-12T02:39:31.706Z,16.81
2019-02-12T02:40:32.328Z,16.84
2019-02-12T02:41:32.905Z,16.83
2019-02-12T02:42:33.477Z,16.84
2019-02-12T02:43:34.093Z,16.86
2019-02-12T02:44:34.670Z,16.87
2019-02-12T02:45:35.242Z,16.86
2019-02-12T02:46:35.859Z,16.90
2019-02-12T02:47:36.389Z,16.86
2019-02-12T02:48:36.959Z,16.87
2019-02-12T02:49:37.585Z,16.84
2019-02-12T02:50:38.157Z,16.86
2019-02-12T02:51:38.736Z,16.94
2019-02-12T02:52:39.301Z,16.76
2019-02-12T02:53:39.872Z,16.79
2019-02-12T02:54:40.447Z,16.86
2019-02-12T02:55:41.060Z,16.87
2019-02-12T02:56:41.632Z,16.89
2019-02-12T02:57:42.254Z,16.99
2019-02-12T02:58:42.826Z,16.90
2019-02-12T02:59:43.400Z,16.86
2019-02-12T03:00:43.973Z,16.91
2019-02-12T03:01:44.546Z,16.99
2019-02-12T03:02:45.119Z,16.91
2019-02-12T03:03:45.753Z,16.89
2019-02-12T03:04:46.321Z,16.96
2019-02-12T03:05:46.893Z,16.93
2019-02-12T03:06:47.465Z,16.91
2019-02-12T03:07:48.089Z,16.96
2019-02-12T03:08:48.664Z,16.90
2019-02-12T03:09:49.234Z,16.93
2019-02-12T03:10:49.810Z,16.96
2019-02-12T03:11:50.382Z,16.89
2019-02-12T03:12:50.957Z,16.96
2019-02-12T03:13:51.530Z,17.01
2019-02-12T03:14:52.105Z,16.93
2019-02-12T03:15:52.678Z,16.94
2019-02-12T03:16:53.253Z,16.94
2019-02-12T03:17:53.832Z,16.96
2019-02-12T03:18:54.400Z,17.01
2019-02-12T03:19:54.972Z,16.87
2019-02-12T03:20:55.545Z,17.01
2019-02-12T03:22:03.386Z,16.91
2019-02-12T03:22:57.683Z,16.97
2019-02-12T03:23:58.258Z,16.90
2019-02-12T03:24:58.882Z,16.75
2019-02-12T03:26:04.510Z,16.83
2019-02-12T03:27:05.079Z,16.93
2019-02-12T03:28:05.650Z,16.99
2019-02-12T03:29:06.273Z,16.83
2019-02-12T03:30:06.887Z,16.81
2019-02-12T03:31:07.417Z,16.93
2019-02-12T03:32:08.142Z,16.81
2019-02-12T03:33:08.754Z,16.87
2019-02-12T03:34:09.326Z,16.84
2019-02-12T03:35:09.897Z,16.89
2019-02-12T03:36:10.474Z,16.81
2019-02-12T03:37:11.044Z,16.93
2019-02-12T03:38:11.617Z,16.83
2019-02-12T03:39:12.193Z,16.91
2019-02-12T03:40:12.813Z,16.83
2019-02-12T03:41:13.395Z,16.86
2019-02-12T03:42:13.963Z,16.83
2019-02-12T03:43:14.537Z,16.72
2019-02-12T03:44:15.161Z,16.78
2019-02-12T03:45:15.784Z,16.78
2019-02-12T03:46:16.359Z,16.81
2019-02-12T03:47:16.933Z,16.76
2019-02-12T03:48:17.509Z,16.84
2019-02-12T03:49:18.081Z,16.72
2019-02-12T03:50:18.654Z,16.79
2019-02-12T03:51:19.227Z,16.76
2019-02-12T03:52:19.801Z,16.72
2019-02-12T03:53:20.374Z,16.74
2019-02-12T03:54:20.947Z,16.79
2019-02-12T03:55:21.522Z,16.79
2019-02-12T03:56:22.092Z,16.78
2019-02-12T03:57:22.665Z,16.79
2019-02-12T03:58:23.239Z,16.79
2019-02-12T03:59:23.860Z,16.66
2019-02-12T04:00:24.437Z,16.72
2019-02-12T04:01:25.047Z,16.74
2019-02-12T04:02:25.618Z,16.74
2019-02-12T04:03:26.188Z,16.72
2019-02-12T04:04:26.761Z,16.66
2019-02-12T04:05:27.346Z,16.69
2019-02-12T04:06:27.950Z,16.72
2019-02-12T04:07:28.522Z,16.76
2019-02-12T04:08:29.145Z,16.71
2019-02-12T04:09:29.711Z,16.72
2019-02-12T04:10:30.334Z,16.71
2019-02-12T04:11:30.910Z,16.71
2019-02-12T04:12:31.481Z,16.72
2019-02-12T04:13:32.054Z,16.74
2019-02-12T04:14:32.628Z,16.78
2019-02-12T04:15:33.200Z,16.69
2019-02-12T04:16:33.772Z,16.75
2019-02-12T04:17:34.346Z,16.69
2019-02-12T04:18:34.916Z,16.66
2019-02-12T04:19:35.492Z,16.65
2019-02-12T04:20:36.058Z,16.72
2019-02-12T04:21:36.632Z,16.71
2019-02-12T04:22:37.207Z,16.69
2019-02-12T04:23:37.780Z,16.69
2019-02-12T04:24:38.349Z,16.69
2019-02-12T04:25:38.927Z,16.66
2019-02-12T04:26:39.586Z,16.65
2019-02-12T04:27:40.160Z,16.75
2019-02-12T04:28:40.734Z,16.69
2019-02-12T04:29:41.308Z,16.65
2019-02-12T04:30:41.878Z,16.60
2019-02-12T04:31:42.503Z,16.65
2019-02-12T04:32:43.124Z,16.60
2019-02-12T04:33:43.696Z,16.64
2019-02-12T04:34:44.270Z,16.65
2019-02-12T04:35:44.841Z,16.66
2019-02-12T04:36:45.423Z,16.66
2019-02-12T04:37:45.984Z,16.57
2019-02-12T04:38:46.606Z,16.71
2019-02-12T04:39:47.228Z,16.54
2019-02-12T04:40:47.822Z,16.60
2019-02-12T04:41:48.375Z,16.66
2019-02-12T04:42:48.949Z,16.65
2019-02-12T04:43:49.526Z,16.65
2019-02-12T04:44:50.096Z,16.69
2019-02-12T04:45:50.669Z,16.64
2019-02-12T04:46:51.291Z,16.72
2019-02-12T04:47:51.863Z,16.58
2019-02-12T04:48:52.436Z,16.61
2019-02-12T04:49:53.005Z,16.57
2019-02-12T04:50:53.576Z,16.58
2019-02-12T04:51:54.225Z,16.64
2019-02-12T04:52:54.748Z,16.68
2019-02-12T04:53:55.320Z,16.64
2019-02-12T04:54:55.894Z,16.66
2019-02-12T04:56:01.479Z,16.64
2019-02-12T04:57:02.042Z,16.65
2019-02-12T04:58:02.654Z,16.66
2019-02-12T04:59:03.231Z,16.58
2019-02-12T05:00:03.818Z,16.69
2019-02-12T05:01:04.421Z,16.60
2019-02-12T05:02:04.991Z,16.66
2019-02-12T05:03:05.566Z,16.64
2019-02-12T05:04:06.137Z,16.66
2019-02-12T05:05:06.713Z,16.60
2019-02-12T05:06:07.283Z,16.61
2019-02-12T05:07:07.862Z,16.61
2019-02-12T05:08:08.442Z,16.65
2019-02-12T05:09:09.075Z,16.61
2019-02-12T05:10:09.681Z,16.64
2019-02-12T05:11:10.255Z,16.65
2019-02-12T05:12:10.827Z,16.58
2019-02-12T05:13:11.399Z,16.68
2019-02-12T05:14:11.970Z,16.65
2019-02-12T05:15:12.542Z,16.61
2019-02-12T05:16:13.114Z,16.69
2019-02-12T05:17:13.693Z,16.60
2019-02-12T05:18:14.263Z,16.61
2019-02-12T05:19:14.872Z,16.64
2019-02-12T05:20:15.457Z,16.65
2019-02-12T05:21:16.060Z,16.66
2019-02-12T05:22:16.673Z,16.66
2019-02-12T05:23:17.243Z,16.58
2019-02-12T05:24:17.868Z,16.57
2019-02-12T05:25:18.547Z,16.61
2019-02-12T05:26:19.068Z,16.60
2019-02-12T05:27:19.840Z,16.64
2019-02-12T05:28:20.413Z,16.64
2019-02-12T05:29:20.986Z,16.60
2019-02-12T05:30:21.565Z,16.65
2019-02-12T05:31:22.133Z,16.69
2019-02-12T05:32:22.706Z,16.56
2019-02-12T05:33:23.279Z,16.60
2019-02-12T05:34:23.851Z,16.60
2019-02-12T05:35:24.427Z,16.61
2019-02-12T05:36:24.996Z,16.61
2019-02-12T05:37:25.569Z,16.64
2019-02-12T05:38:26.141Z,16.60
2019-02-12T05:39:26.713Z,16.61
2019-02-12T05:40:27.289Z,16.58
2019-02-12T05:41:27.902Z,16.58
2019-02-12T05:42:28.526Z,16.65
2019-02-12T05:43:29.103Z,16.53
2019-02-12T05:44:29.724Z,16.61
2019-02-12T05:45:30.295Z,16.60
2019-02-12T05:46:30.871Z,16.58
2019-02-12T05:47:31.441Z,16.61
2019-02-12T05:48:32.016Z,16.58
2019-02-12T05:49:32.584Z,16.60
2019-02-12T05:50:33.157Z,16.47
2019-02-12T05:51:33.731Z,16.60
2019-02-12T05:52:34.345Z,16.53
2019-02-12T05:53:34.918Z,16.60
2019-02-12T05:54:35.490Z,16.60
2019-02-12T05:55:36.065Z,16.60
2019-02-12T05:56:36.634Z,16.53
2019-02-12T05:57:37.207Z,16.41
2019-02-12T05:58:37.780Z,16.46
2019-02-12T05:59:38.353Z,16.51
2019-02-12T06:00:38.926Z,16.42
2019-02-12T06:01:39.559Z,16.43
2019-02-12T06:02:40.166Z,16.42
2019-02-12T06:03:40.789Z,16.43
2019-02-12T06:04:41.363Z,16.41
2019-02-12T06:05:41.949Z,16.47
2019-02-12T06:06:42.552Z,16.43
2019-02-12T06:07:43.123Z,16.46
2019-02-12T06:08:43.697Z,16.46
2019-02-12T06:09:44.270Z,16.41
2019-02-12T06:10:44.844Z,16.41
2019-02-12T06:11:45.417Z,16.39
2019-02-12T06:12:45.994Z,16.41
2019-02-12T06:13:46.605Z,16.47
2019-02-12T06:14:47.178Z,16.42
2019-02-12T06:15:47.767Z,16.46
2019-02-12T06:16:48.332Z,16.43
2019-02-12T06:17:48.903Z,16.46
2019-02-12T06:18:49.559Z,16.49
2019-02-12T06:19:50.131Z,16.49
2019-02-12T06:20:50.754Z,16.46
2019-02-12T06:21:51.327Z,16.41
2019-02-12T06:22:51.901Z,16.33
2019-02-12T06:23:52.474Z,16.36
2019-02-12T06:24:53.051Z,16.42
2019-02-12T06:25:53.621Z,16.49
2019-02-12T06:26:54.193Z,16.38
2019-02-12T06:27:54.769Z,16.43
2019-02-12T06:28:55.338Z,16.43
2019-02-12T06:29:55.910Z,16.43
2019-02-12T06:30:56.530Z,16.41
2019-02-12T06:31:57.202Z,16.41
2019-02-12T06:33:06.923Z,16.36
2019-02-12T06:33:58.385Z,16.41
2019-02-12T06:34:58.961Z,16.36
2019-02-12T06:35:59.734Z,16.41
2019-02-12T06:37:00.315Z,16.43
2019-02-12T06:38:00.881Z,16.35
2019-02-12T06:39:01.494Z,16.41
2019-02-12T06:40:02.068Z,16.41
2019-02-12T06:41:02.641Z,16.39
2019-02-12T06:42:03.214Z,16.36
2019-02-12T06:43:03.790Z,16.36
2019-02-12T06:44:04.357Z,16.38
2019-02-12T06:45:04.928Z,16.38
2019-02-12T06:46:05.513Z,16.43
2019-02-12T06:47:06.126Z,16.43
2019-02-12T06:48:06.753Z,16.36
2019-02-12T06:49:07.364Z,16.32
2019-02-12T06:50:07.937Z,16.36
2019-02-12T06:51:08.513Z,16.35
2019-02-12T06:52:09.135Z,16.33
2019-02-12T06:53:12.494Z,16.33
2019-02-12T06:54:11.273Z,16.32
2019-02-12T06:55:11.850Z,16.31
2019-02-12T06:56:12.425Z,16.17
2019-02-12T06:57:13.038Z,16.28
2019-02-12T06:58:13.611Z,16.17
2019-02-12T06:59:14.184Z,16.26
2019-02-12T07:00:14.759Z,16.15
2019-02-12T07:01:15.329Z,16.20
2019-02-12T07:02:15.902Z,16.23
2019-02-12T07:03:16.474Z,16.16
2019-02-12T07:04:17.047Z,16.15
2019-02-12T07:05:17.819Z,16.28
2019-02-12T07:06:18.392Z,16.15
2019-02-12T07:07:18.988Z,16.10
2019-02-12T07:08:19.539Z,16.17
2019-02-12T07:09:20.110Z,16.05
2019-02-12T07:10:20.684Z,16.17
2019-02-12T07:11:21.255Z,16.16
2019-02-12T07:12:21.829Z,16.15
2019-02-12T07:13:22.400Z,16.12
2019-02-12T07:14:22.975Z,16.12
2019-02-12T07:15:23.545Z,16.01
2019-02-12T07:16:24.118Z,16.04
2019-02-12T07:17:24.690Z,16.04
2019-02-12T07:18:25.264Z,16.09
2019-02-12T07:19:25.837Z,16.08
2019-02-12T07:20:26.413Z,16.04
2019-02-12T07:21:26.981Z,16.05
2019-02-12T07:22:27.556Z,16.09
2019-02-12T07:23:28.128Z,16.04
2019-02-12T07:24:28.710Z,16.05
2019-02-12T07:25:29.320Z,16.08
2019-02-12T07:26:29.942Z,16.04
2019-02-12T07:27:30.516Z,16.01
2019-02-12T07:28:31.140Z,15.97
2019-02-12T07:29:31.714Z,16.01
2019-02-12T07:30:32.295Z,16.05
2019-02-12T07:31:34.656Z,16.01
2019-02-12T07:32:34.428Z,15.94
2019-02-12T07:33:34.999Z,16.05
2019-02-12T07:34:35.622Z,16.08
2019-02-12T07:35:36.194Z,16.00
2019-02-12T07:36:36.766Z,15.95
2019-02-12T07:37:37.339Z,16.01
2019-02-12T07:38:37.909Z,16.09
2019-02-12T07:39:38.480Z,16.05
2019-02-12T07:40:39.052Z,16.04
2019-02-12T07:41:39.671Z,16.00
2019-02-12T07:42:40.195Z,16.00
2019-02-12T07:43:40.766Z,15.98
2019-02-12T07:44:41.391Z,15.97
2019-02-12T07:45:41.965Z,15.98
2019-02-12T07:46:42.532Z,16.02
2019-02-12T07:47:43.106Z,15.95
2019-02-12T07:48:45.258Z,16.01
2019-02-12T07:49:44.285Z,15.88
2019-02-12T07:50:44.860Z,15.88
2019-02-12T07:51:45.480Z,15.82
2019-02-12T07:52:46.051Z,15.82
2019-02-12T07:53:46.675Z,15.73
2019-02-12T07:54:47.261Z,15.90
2019-02-12T07:55:47.823Z,15.82
2019-02-12T07:56:48.396Z,15.79
2019-02-12T07:57:48.968Z,15.83
2019-02-12T07:58:49.545Z,15.83
2019-02-12T07:59:50.112Z,15.82
2019-02-12T08:00:50.735Z,15.86
2019-02-12T08:01:51.307Z,15.84
2019-02-12T08:02:51.885Z,15.83
2019-02-12T08:03:52.455Z,15.77
2019-02-12T08:04:53.030Z,15.72
2019-02-12T08:05:53.599Z,15.86
2019-02-12T08:06:54.171Z,15.83
2019-02-12T08:07:54.746Z,15.77
2019-02-12T08:08:55.312Z,15.79
2019-02-12T08:09:55.883Z,15.80
2019-02-12T08:10:56.472Z,15.82
2019-02-12T08:11:57.029Z,15.80
2019-02-12T08:12:57.611Z,15.84
2019-02-12T08:13:58.170Z,15.84
2019-02-12T08:14:58.741Z,15.80
2019-02-12T08:15:59.315Z,15.90
2019-02-12T08:16:59.935Z,15.84
2019-02-12T08:18:00.507Z,15.88
2019-02-12T08:19:01.083Z,15.84
2019-02-12T08:20:01.649Z,15.83
2019-02-12T08:21:02.224Z,15.77
2019-02-12T08:22:02.791Z,15.79
2019-02-12T08:23:03.365Z,15.83
2019-02-12T08:24:03.987Z,15.80
2019-02-12T08:25:04.561Z,15.79
2019-02-12T08:26:05.135Z,15.82
2019-02-12T08:27:05.751Z,15.95
2019-02-12T08:28:06.322Z,15.86
2019-02-12T08:29:06.895Z,15.86
2019-02-12T08:30:07.467Z,15.86
2019-02-12T08:31:08.044Z,15.82
2019-02-12T08:32:08.614Z,15.86
2019-02-12T08:33:09.191Z,15.84
2019-02-12T08:34:09.759Z,15.79
2019-02-12T08:35:10.388Z,15.82
2019-02-12T08:36:10.957Z,15.88
2019-02-12T08:37:11.529Z,15.90
2019-02-12T08:38:12.101Z,15.84
2019-02-12T08:39:12.674Z,15.86
2019-02-12T08:40:13.248Z,15.83
2019-02-12T08:41:13.822Z,15.86
2019-02-12T08:42:14.446Z,15.82
2019-02-12T08:43:15.066Z,15.91
2019-02-12T08:44:15.640Z,15.80
2019-02-12T08:45:16.265Z,15.88
2019-02-12T08:46:16.832Z,15.88
2019-02-12T08:47:17.414Z,15.86
2019-02-12T08:48:18.030Z,15.82
2019-02-12T08:49:18.589Z,15.83
2019-02-12T08:50:19.165Z,15.84
2019-02-12T08:51:19.732Z,15.88
2019-02-12T08:52:20.505Z,15.90
2019-02-12T08:53:21.078Z,15.92
2019-02-12T08:54:21.655Z,15.83
2019-02-12T08:55:22.220Z,15.88
2019-02-12T08:56:22.792Z,15.88
2019-02-12T08:57:23.365Z,15.95
2019-02-12T08:58:23.934Z,15.90
2019-02-12T08:59:24.552Z,15.95
2019-02-12T09:00:25.129Z,15.91
2019-02-12T09:01:25.821Z,15.95
2019-02-12T09:02:26.342Z,15.97
2019-02-12T09:03:26.955Z,15.91
2019-02-12T09:04:27.678Z,15.94
2019-02-12T09:05:28.253Z,15.91
2019-02-12T09:06:28.819Z,15.95
2019-02-12T09:07:29.391Z,15.98
2019-02-12T09:08:29.966Z,15.95
2019-02-12T09:09:30.538Z,15.94
2019-02-12T09:10:31.110Z,15.91
2019-02-12T09:11:31.682Z,15.95
2019-02-12T09:12:32.253Z,15.91
2019-02-12T09:13:32.825Z,15.94
2019-02-12T09:14:33.398Z,15.94
2019-02-12T09:15:33.973Z,15.91
2019-02-12T09:16:34.544Z,15.95
2019-02-12T09:17:35.117Z,15.97
2019-02-12T09:18:35.701Z,15.92
2019-02-12T09:19:36.262Z,15.94
2019-02-12T09:20:36.834Z,15.97
2019-02-12T09:21:37.488Z,15.91
2019-02-12T09:22:38.084Z,15.97
2019-02-12T09:23:38.656Z,15.95
2019-02-12T09:24:39.229Z,15.97
2019-02-12T09:25:39.800Z,15.92
2019-02-12T09:26:40.451Z,15.98
2019-02-12T09:27:41.022Z,15.92
2019-02-12T09:28:41.595Z,15.98
2019-02-12T09:29:42.171Z,15.91
2019-02-12T09:30:42.743Z,16.01
2019-02-12T09:31:43.315Z,15.98
2019-02-12T09:32:43.894Z,16.00
2019-02-12T09:33:44.464Z,16.01
2019-02-12T09:34:45.035Z,16.02
2019-02-12T09:35:45.606Z,15.98
2019-02-12T09:36:46.179Z,16.09
2019-02-12T09:37:46.800Z,16.04
2019-02-12T09:38:47.370Z,16.08
2019-02-12T09:39:47.941Z,16.01
2019-02-12T09:40:48.513Z,16.09
2019-02-12T09:41:49.133Z,16.08
2019-02-12T09:42:49.707Z,16.00
2019-02-12T09:43:50.280Z,16.04
2019-02-12T09:44:50.853Z,16.02
2019-02-12T09:45:51.426Z,16.02
2019-02-12T09:46:52.050Z,16.01
2019-02-12T09:47:52.621Z,16.09
2019-02-12T09:48:55.285Z,16.04
2019-02-12T09:49:54.758Z,16.15
2019-02-12T09:50:55.333Z,16.08
2019-02-12T09:51:55.906Z,16.04
2019-02-12T09:52:56.481Z,16.05
2019-02-12T09:53:57.061Z,16.15
2019-02-12T09:54:57.631Z,16.15
2019-02-12T09:55:58.254Z,16.05
2019-02-12T09:56:58.828Z,16.12
2019-02-12T09:57:59.403Z,16.20
2019-02-12T09:58:59.977Z,16.17
2019-02-12T10:00:00.551Z,16.15
2019-02-12T10:01:01.124Z,16.15
2019-02-12T10:02:01.739Z,16.16
2019-02-12T10:03:02.312Z,16.20
2019-02-12T10:04:02.885Z,16.17
2019-02-12T10:05:03.458Z,16.26
2019-02-12T10:06:04.028Z,16.16
2019-02-12T10:07:04.606Z,16.23
2019-02-12T10:08:05.265Z,16.28
2019-02-12T10:09:05.841Z,16.26
2019-02-12T10:10:06.416Z,16.16
2019-02-12T10:11:06.990Z,16.20
2019-02-12T10:12:07.566Z,16.33
2019-02-12T10:13:08.137Z,16.21
2019-02-12T10:14:08.713Z,16.21
2019-02-12T10:15:09.283Z,16.31
2019-02-12T10:16:09.905Z,16.28
2019-02-12T10:17:10.527Z,16.33
2019-02-12T10:18:11.103Z,16.29
2019-02-12T10:19:11.673Z,16.35
2019-02-12T10:20:12.292Z,16.33
2019-02-12T10:21:12.861Z,16.35
2019-02-12T10:22:13.435Z,16.35
2019-02-12T10:23:14.008Z,16.36
2019-02-12T10:24:20.763Z,16.33
2019-02-12T10:25:16.151Z,16.33
2019-02-12T10:26:16.726Z,16.31
2019-02-12T10:27:17.330Z,16.32
2019-02-12T10:28:17.876Z,16.39
2019-02-12T10:29:18.446Z,16.33
2019-02-12T10:30:19.069Z,16.33
2019-02-12T10:31:19.661Z,16.33
2019-02-12T10:32:20.218Z,16.31
2019-02-12T10:33:20.795Z,16.42
2019-02-12T10:34:21.370Z,16.35
2019-02-12T10:35:21.952Z,16.41
2019-02-12T10:36:22.574Z,16.41
2019-02-12T10:37:23.150Z,16.46
2019-02-12T10:38:23.772Z,16.47
2019-02-12T10:39:24.350Z,16.46
2019-02-12T10:40:24.920Z,16.42
2019-02-12T10:41:25.494Z,16.47
2019-02-12T10:42:26.069Z,16.49
2019-02-12T10:43:26.645Z,16.50
2019-02-12T10:44:27.223Z,16.54
2019-02-12T10:45:27.789Z,16.56
2019-02-12T10:46:28.365Z,16.60
2019-02-12T10:47:28.943Z,16.57
2019-02-12T10:48:29.615Z,16.56
2019-02-12T10:49:30.192Z,16.56
2019-02-12T10:50:30.762Z,16.58
2019-02-12T10:51:31.335Z,16.61
2019-02-12T10:52:31.908Z,16.65
2019-02-12T10:53:32.484Z,16.65
2019-02-12T10:54:33.058Z,16.61
2019-02-12T10:55:33.683Z,16.68
2019-02-12T10:56:34.260Z,16.61
2019-02-12T10:57:34.831Z,16.64
2019-02-12T10:58:35.461Z,16.65
2019-02-12T10:59:36.031Z,16.69
2019-02-12T11:00:36.648Z,16.65
2019-02-12T11:01:37.222Z,16.71
2019-02-12T11:02:37.797Z,16.69
2019-02-12T11:03:38.372Z,16.64
2019-02-12T11:04:38.945Z,16.65
2019-02-12T11:05:39.521Z,16.64
2019-02-12T11:06:40.095Z,16.64
2019-02-12T11:07:40.668Z,16.64
2019-02-12T11:08:41.301Z,16.60
2019-02-12T11:09:41.956Z,16.65
2019-02-12T11:10:42.527Z,16.61
2019-02-12T11:11:43.100Z,16.60
2019-02-12T11:12:43.674Z,16.65
2019-02-12T11:13:44.246Z,16.71
2019-02-12T11:14:44.820Z,16.71
2019-02-12T11:15:45.394Z,16.72
2019-02-12T11:16:45.967Z,16.72
2019-02-12T11:17:46.541Z,16.72
2019-02-12T11:18:47.116Z,16.71
2019-02-12T11:19:47.688Z,16.72
2019-02-12T11:20:48.261Z,16.71
2019-02-12T11:21:48.886Z,16.79
2019-02-12T11:22:49.460Z,16.71
2019-02-12T11:23:50.086Z,16.78
2019-02-12T11:24:50.663Z,16.81
2019-02-12T11:25:51.235Z,16.71
2019-02-12T11:26:51.817Z,16.71
2019-02-12T11:27:52.384Z,16.83
2019-02-12T11:28:53.003Z,16.72
2019-02-12T11:29:53.576Z,16.76
2019-02-12T11:30:54.150Z,16.76
2019-02-12T11:31:54.723Z,16.86
2019-02-12T11:32:55.298Z,16.76
2019-02-12T11:33:55.872Z,16.83
2019-02-12T11:34:56.446Z,16.84
2019-02-12T11:35:57.021Z,16.81
2019-02-12T11:36:57.596Z,16.87
2019-02-12T11:37:58.171Z,16.87
2019-02-12T11:38:58.795Z,16.93
2019-02-12T11:39:59.421Z,16.83
2019-02-12T11:40:59.994Z,16.78
2019-02-12T11:42:00.613Z,16.89
2019-02-12T11:43:01.225Z,16.89
2019-02-12T11:44:01.853Z,16.78
2019-02-12T11:45:02.430Z,16.86
2019-02-12T11:46:03.916Z,16.93
2019-02-12T11:47:04.527Z,16.96
2019-02-12T11:48:05.101Z,16.86
2019-02-12T11:49:05.676Z,16.97
2019-02-12T11:50:06.250Z,16.99
2019-02-12T11:51:06.821Z,16.96
2019-02-12T11:52:07.448Z,16.93
2019-02-12T11:53:08.020Z,16.93
2019-02-12T11:54:08.643Z,16.96
2019-02-12T11:55:09.218Z,16.93
2019-02-12T11:56:09.797Z,16.97
2019-02-12T11:57:10.372Z,16.89
2019-02-12T11:58:10.946Z,16.94
2019-02-12T11:59:11.571Z,16.97
2019-02-12T12:00:12.149Z,16.99
2019-02-12T12:01:12.721Z,16.93
2019-02-12T12:02:13.348Z,16.93
2019-02-12T12:03:13.877Z,16.90
2019-02-12T12:04:14.448Z,16.87
2019-02-12T12:05:15.021Z,16.91
2019-02-12T12:06:15.637Z,16.96
2019-02-12T12:07:16.260Z,16.89
2019-02-12T12:08:16.834Z,16.90
2019-02-12T12:09:17.411Z,16.93
2019-02-12T12:10:17.986Z,16.93
2019-02-12T12:11:18.563Z,17.02
2019-02-12T12:12:19.188Z,16.94
2019-02-12T12:13:19.759Z,16.96
2019-02-12T12:14:20.334Z,16.94
2019-02-12T12:15:20.905Z,16.93
2019-02-12T12:16:21.627Z,16.93
2019-02-12T12:17:22.198Z,16.90
2019-02-12T12:18:22.771Z,16.93
2019-02-12T12:19:23.342Z,16.96
2019-02-12T12:20:23.915Z,16.89
2019-02-12T12:21:24.487Z,16.96
2019-02-12T12:22:25.058Z,16.89
2019-02-12T12:23:25.632Z,16.94
2019-02-12T12:24:26.203Z,16.93
2019-02-12T12:25:26.777Z,16.83
2019-02-12T12:26:27.354Z,16.93
2019-02-12T12:27:27.964Z,16.93
2019-02-12T12:28:28.536Z,16.93
2019-02-12T12:29:29.111Z,16.97
2019-02-12T12:30:29.835Z,16.84
2019-02-12T12:31:30.457Z,16.87
2019-02-12T12:32:31.033Z,16.97
2019-02-12T12:33:31.708Z,16.99
2019-02-12T12:34:32.280Z,16.91
2019-02-12T12:35:32.851Z,16.90
2019-02-12T12:36:33.425Z,16.79
2019-02-12T12:37:34.046Z,16.94
2019-02-12T12:38:34.671Z,16.93
2019-02-12T12:39:35.244Z,16.90
2019-02-12T12:40:35.816Z,16.96
2019-02-12T12:41:36.395Z,16.94
2019-02-12T12:42:36.967Z,16.84
2019-02-12T12:43:37.542Z,16.91
2019-02-12T12:44:38.116Z,16.91
2019-02-12T12:45:38.698Z,16.91
2019-02-12T12:46:39.305Z,16.93
2019-02-12T12:47:39.880Z,16.94
2019-02-12T12:48:40.497Z,16.90
2019-02-12T12:49:41.064Z,16.96
2019-02-12T12:50:41.637Z,16.91
2019-02-12T12:51:42.210Z,16.81
2019-02-12T12:52:42.835Z,16.90
2019-02-12T12:53:43.458Z,16.81
2019-02-12T12:54:44.027Z,16.91
2019-02-12T12:55:44.599Z,16.90
2019-02-12T12:56:45.181Z,16.83
2019-02-12T12:57:45.802Z,16.89
2019-02-12T12:58:46.380Z,16.79
2019-02-12T12:59:46.947Z,16.83
2019-02-12T13:00:47.517Z,16.83